Heide Moran — WYN6273 — position and weather

sailwx.info

Track history (hours):
 
Tides and Currents Weather Stations Pressure Air Temp Water Temp Dewpoint Dewpoint Depression Visibility Wind Speed Wind Dir Waves Ship Positions

Heide Moran

Owner: MORAN TOWING CORPORATION, New Canaan, CT. More information available from US FCC via Universal Licensing System and Coast Guard Vessel Documentation Center.

Last reported at 2017-Sep-26 18:29 UTC. Time now 2017-Sep-26 18:37 UTC.
Position N 27°56' W 082°26'.

Length 175 m; draft 5 m.

Type: Tug. MMSI: 368674000.

Date/timePositionNaut miles runAvg speedWind from/ knotsBaromVisibWave heightAir tempDewpointWater temp
2017-Sep-26 18:29N 27°56' W 082°26'0 0.0
2017-Sep-26 17:59N 27°56' W 082°26'0 0.0
2017-Sep-26 17:29N 27°56' W 082°26'0 0.1
2017-Sep-26 16:59N 27°56' W 082°26'0 0.0
2017-Sep-26 16:29N 27°56' W 082°26'0 0.0
2017-Sep-26 15:56N 27°56' W 082°26'0 0.0
2017-Sep-26 15:29N 27°56' W 082°26'0 0.0
2017-Sep-26 14:59N 27°56' W 082°26'0 0.0
2017-Sep-26 14:29N 27°56' W 082°26'0 0.1
2017-Sep-26 13:59N 27°56' W 082°26'0 0.0
2017-Sep-26 13:29N 27°56' W 082°26'0 0.0
2017-Sep-26 12:59N 27°56' W 082°26'0 0.0
2017-Sep-26 12:29N 27°56' W 082°26'0 0.0
2017-Sep-26 11:59N 27°56' W 082°26'0 0.0
2017-Sep-26 11:29N 27°56' W 082°26'0 0.1
2017-Sep-26 10:59N 27°56' W 082°26'0 0.0
2017-Sep-26 10:29N 27°56' W 082°26'0 0.0
2017-Sep-26 09:59N 27°56' W 082°26'0 0.0
2017-Sep-26 09:29N 27°56' W 082°26'0 0.0
2017-Sep-26 08:58N 27°56' W 082°26'0 0.0
2017-Sep-26 08:28N 27°56' W 082°26'0 0.0
2017-Sep-26 07:58N 27°56' W 082°26'0 0.1
2017-Sep-26 07:28N 27°56' W 082°26'0 0.0
2017-Sep-26 06:58N 27°56' W 082°26'0 0.0
2017-Sep-26 06:28N 27°56' W 082°26'0 0.0
2017-Sep-26 05:58N 27°56' W 082°26'0 0.0
2017-Sep-26 05:28N 27°56' W 082°26'0 0.0
2017-Sep-26 04:58N 27°56' W 082°26'0 0.0
2017-Sep-26 04:28N 27°56' W 082°26'0 0.0
2017-Sep-26 03:58N 27°56' W 082°26'0 0.0
2017-Sep-26 03:28N 27°56' W 082°26'0 0.0
2017-Sep-26 03:00N 27°56' W 082°26'0 0.0
2017-Sep-26 02:30N 27°56' W 082°26'0 0.0
2017-Sep-26 02:00N 27°56' W 082°26'0 0.0
2017-Sep-26 01:30N 27°56' W 082°26'0 0.0
2017-Sep-26 01:00N 27°56' W 082°26'0 0.0
2017-Sep-26 00:30N 27°56' W 082°26'0 0.0
2017-Sep-26 00:00N 27°56' W 082°26'0 0.0
2017-Sep-25 23:30N 27°56' W 082°26'0 0.0
2017-Sep-25 23:00N 27°56' W 082°26'0 0.1
2017-Sep-25 22:30N 27°56' W 082°26'1 1.8
2017-Sep-25 22:00N 27°55' W 082°27'1 1.9
2017-Sep-25 21:30N 27°56' W 082°26'0 0.0
2017-Sep-25 21:00N 27°56' W 082°26'0 0.0
2017-Sep-25 20:30N 27°56' W 082°26'0 0.0
2017-Sep-25 20:00N 27°56' W 082°26'2 3.3
2017-Sep-25 19:30N 27°55' W 082°26'1 1.5
2017-Sep-25 19:00N 27°56' W 082°26'0 0.0
2017-Sep-25 18:30N 27°56' W 082°26'1 1.0
2017-Sep-25 18:00N 27°55' W 082°26'3 6.8
2017-Sep-25 17:30N 27°52' W 082°27'6 9.5
2017-Sep-25 16:50N 27°47' W 082°31'  
2017-Sep-19 07:48N 27°45' W 082°32'2 7.4
2017-Sep-19 07:30N 27°47' W 082°31'4 7.2
2017-Sep-19 07:00N 27°48' W 082°28'3 5.9
2017-Sep-19 06:29N 27°51' W 082°26'2 4.0
2017-Sep-19 05:59N 27°51' W 082°23'0 0.2
2017-Sep-19 05:30N 27°51' W 082°23'0 0.0
2017-Sep-19 04:58N 27°51' W 082°23'0 0.0
2017-Sep-19 04:29N 27°51' W 082°23'0 0.0
2017-Sep-19 04:00N 27°51' W 082°23'0 0.0
2017-Sep-19 03:30N 27°51' W 082°23'0 0.0
2017-Sep-19 03:00N 27°51' W 082°24'0 0.0
2017-Sep-19 02:30N 27°51' W 082°23'0 0.0
2017-Sep-19 02:00N 27°52' W 082°23'0 0.0
2017-Sep-19 01:30N 27°51' W 082°23'0 0.0
2017-Sep-19 01:00N 27°51' W 082°23'0 0.0
2017-Sep-19 00:30N 27°51' W 082°23'0 0.0
2017-Sep-19 00:00N 27°51' W 082°23'0 0.0
2017-Sep-18 23:30N 27°51' W 082°24'0 0.0
2017-Sep-18 23:00N 27°52' W 082°23'0 0.0
2017-Sep-18 22:30N 27°51' W 082°23'0 0.0
2017-Sep-18 22:00N 27°51' W 082°23'0 0.0
2017-Sep-18 21:30N 27°51' W 082°23'0 0.0
2017-Sep-18 21:00N 27°51' W 082°24'0 0.0
2017-Sep-18 20:30N 27°51' W 082°23'0 0.0
2017-Sep-18 20:00N 27°51' W 082°24'0 0.0
2017-Sep-18 19:30N 27°51' W 082°24'0 0.0
2017-Sep-18 19:00N 27°51' W 082°24'0 0.0
2017-Sep-18 18:28N 27°51' W 082°24'0 0.0
2017-Sep-18 18:00N 27°51' W 082°24'0 0.0
2017-Sep-18 17:30N 27°51' W 082°24'0 0.0
2017-Sep-18 17:00N 27°51' W 082°24'0 0.0
2017-Sep-18 16:30N 27°51' W 082°24'0 0.0
2017-Sep-18 16:00N 27°51' W 082°24'0 0.0
2017-Sep-18 15:30N 27°51' W 082°24'0 0.0
2017-Sep-18 15:00N 27°51' W 082°24'0 0.0
2017-Sep-18 14:30N 27°51' W 082°24'0 0.0
2017-Sep-18 14:00N 27°52' W 082°24'0 0.0
2017-Sep-18 13:30N 27°51' W 082°24'0 0.0
2017-Sep-18 13:00N 27°52' W 082°24'0 0.0
2017-Sep-18 12:30N 27°51' W 082°24'0 0.0
2017-Sep-18 12:00N 27°52' W 082°24'0 0.0
2017-Sep-18 11:30N 27°51' W 082°24'0 0.0
2017-Sep-18 11:00N 27°51' W 082°24'0 0.0
2017-Sep-18 10:30N 27°51' W 082°24'0 0.0
2017-Sep-18 10:00N 27°51' W 082°24'0 0.0
2017-Sep-18 09:30N 27°51' W 082°24'0 0.0
2017-Sep-18 09:00N 27°51' W 082°24'0 0.0
2017-Sep-18 08:30N 27°52' W 082°24'0 0.0
2017-Sep-18 08:00N 27°52' W 082°24'0 0.0
2017-Sep-18 07:30N 27°51' W 082°24'0 0.0
2017-Sep-18 07:00N 27°51' W 082°24'0 0.0
2017-Sep-18 06:30N 27°51' W 082°24'0 0.0
2017-Sep-18 06:00N 27°51' W 082°24'0 0.0
2017-Sep-18 05:30N 27°51' W 082°24'0 0.0
2017-Sep-18 05:00N 27°51' W 082°24'0 0.0
2017-Sep-18 04:30N 27°51' W 082°24'0 0.0
2017-Sep-18 04:00N 27°51' W 082°24'0 0.0
2017-Sep-18 03:30N 27°51' W 082°24'0 0.0
2017-Sep-18 03:00N 27°51' W 082°24'0 0.0
2017-Sep-18 02:30N 27°51' W 082°24'0 0.0
2017-Sep-18 02:00N 27°51' W 082°24'0 0.0
2017-Sep-18 01:30N 27°51' W 082°24'0 0.0
2017-Sep-18 01:00N 27°51' W 082°24'0 0.0
2017-Sep-18 00:30N 27°51' W 082°24'0 0.0
2017-Sep-18 00:00N 27°51' W 082°24'0 0.0
2017-Sep-17 23:30N 27°52' W 082°24'0 0.0
2017-Sep-17 23:00N 27°52' W 082°24'0 0.0
2017-Sep-17 22:30N 27°51' W 082°24'0 0.0
2017-Sep-17 22:00N 27°51' W 082°24'0 0.0
2017-Sep-17 21:30N 27°51' W 082°24'0 0.0
2017-Sep-17 21:00N 27°51' W 082°24'0 0.0
2017-Sep-17 20:30N 27°51' W 082°24'0 0.0
2017-Sep-17 20:00N 27°51' W 082°24'0 0.0
2017-Sep-17 19:30N 27°51' W 082°24'0 0.0
2017-Sep-17 19:00N 27°51' W 082°24'0 0.0
2017-Sep-17 18:30N 27°51' W 082°24'0 0.0
2017-Sep-17 18:00N 27°51' W 082°24'0 0.0
2017-Sep-17 17:30N 27°51' W 082°24'0 0.0
2017-Sep-17 17:00N 27°51' W 082°24'0 0.0
2017-Sep-17 16:30N 27°51' W 082°24'0 0.0
2017-Sep-17 16:00N 27°51' W 082°24'0 0.0
2017-Sep-17 15:30N 27°51' W 082°24'0 0.0
2017-Sep-17 15:00N 27°51' W 082°24'0 0.0
2017-Sep-17 14:30N 27°51' W 082°24'0 0.0
2017-Sep-17 14:00N 27°51' W 082°24'0 0.0
2017-Sep-17 13:30N 27°52' W 082°24'0 0.0
2017-Sep-17 13:00N 27°51' W 082°24'0 0.0
2017-Sep-17 12:30N 27°51' W 082°24'0 0.0
2017-Sep-17 12:00N 27°51' W 082°24'0 0.0
2017-Sep-17 11:30N 27°51' W 082°24'0 0.0
2017-Sep-17 11:00N 27°51' W 082°24'0 0.0
2017-Sep-17 10:30N 27°51' W 082°24'0 0.0
2017-Sep-17 10:00N 27°51' W 082°24'0 0.0
2017-Sep-17 09:30N 27°51' W 082°24'0 0.0
2017-Sep-17 09:00N 27°51' W 082°24'0 0.0
2017-Sep-17 08:30N 27°51' W 082°24'0 0.0
2017-Sep-17 08:00N 27°51' W 082°24'0 0.0
2017-Sep-17 07:30N 27°52' W 082°24'0 0.0
2017-Sep-17 07:00N 27°51' W 082°24'0 0.0
2017-Sep-17 06:30N 27°51' W 082°24'0 0.0
2017-Sep-17 06:00N 27°51' W 082°24'0 0.0
2017-Sep-17 05:30N 27°51' W 082°24'0 0.0
2017-Sep-17 05:00N 27°51' W 082°24'0 0.0
2017-Sep-17 04:30N 27°52' W 082°24'0 0.0
2017-Sep-17 04:00N 27°51' W 082°24'0 0.0
2017-Sep-17 03:30N 27°51' W 082°24'0 0.0
2017-Sep-17 03:00N 27°52' W 082°24'0 0.0
2017-Sep-17 02:30N 27°51' W 082°24'0 0.0
2017-Sep-17 02:00N 27°52' W 082°24'0 0.0
2017-Sep-17 01:30N 27°52' W 082°24'0 0.0
2017-Sep-17 01:00N 27°52' W 082°24'0 0.0
2017-Sep-17 00:30N 27°52' W 082°24'0 0.0
2017-Sep-17 00:00N 27°51' W 082°24'0 0.0
2017-Sep-16 23:30N 27°51' W 082°24'0 0.0
2017-Sep-16 23:00N 27°51' W 082°24'0 0.0
2017-Sep-16 22:30N 27°51' W 082°24'0 0.0
2017-Sep-16 22:00N 27°51' W 082°23'0 0.0
2017-Sep-16 21:30N 27°51' W 082°24'0 0.0
2017-Sep-16 21:00N 27°51' W 082°24'0 0.0
2017-Sep-16 20:30N 27°51' W 082°24'0 0.0
2017-Sep-16 20:00N 27°51' W 082°24'0 0.0
2017-Sep-16 19:30N 27°51' W 082°24'0 0.0
2017-Sep-16 19:00N 27°51' W 082°24'0 0.0
2017-Sep-16 18:30N 27°51' W 082°24'  
Track history (hours):
 
Tides and Currents Weather Stations Pressure Air Temp Water Temp Dewpoint Dewpoint Depression Visibility Wind Speed Wind Dir Waves Ship Positions

Heide Moran

Owner: MORAN TOWING CORPORATION, New Canaan, CT. More information available from US FCC via Universal Licensing System and Coast Guard Vessel Documentation Center.

Last reported at 2017-Sep-26 18:29 UTC. Time now 2017-Sep-26 18:37 UTC.
Position N 27°56' W 082°26'.

Length 175 m; draft 5 m.

Type: Tug. MMSI: 368674000.

Date/timePositionNaut miles runAvg speedWind from/ knotsBaromVisibWave heightAir tempDewpointWater temp
2017-Sep-26 18:29N 27°56' W 082°26'0 0.0
2017-Sep-26 17:59N 27°56' W 082°26'0 0.0
2017-Sep-26 17:29N 27°56' W 082°26'0 0.1
2017-Sep-26 16:59N 27°56' W 082°26'0 0.0
2017-Sep-26 16:29N 27°56' W 082°26'0 0.0
2017-Sep-26 15:56N 27°56' W 082°26'0 0.0
2017-Sep-26 15:29N 27°56' W 082°26'0 0.0
2017-Sep-26 14:59N 27°56' W 082°26'0 0.0
2017-Sep-26 14:29N 27°56' W 082°26'0 0.1
2017-Sep-26 13:59N 27°56' W 082°26'0 0.0
2017-Sep-26 13:29N 27°56' W 082°26'0 0.0
2017-Sep-26 12:59N 27°56' W 082°26'0 0.0
2017-Sep-26 12:29N 27°56' W 082°26'0 0.0
2017-Sep-26 11:59N 27°56' W 082°26'0 0.0
2017-Sep-26 11:29N 27°56' W 082°26'0 0.1
2017-Sep-26 10:59N 27°56' W 082°26'0 0.0
2017-Sep-26 10:29N 27°56' W 082°26'0 0.0
2017-Sep-26 09:59N 27°56' W 082°26'0 0.0
2017-Sep-26 09:29N 27°56' W 082°26'0 0.0
2017-Sep-26 08:58N 27°56' W 082°26'0 0.0
2017-Sep-26 08:28N 27°56' W 082°26'0 0.0
2017-Sep-26 07:58N 27°56' W 082°26'0 0.1
2017-Sep-26 07:28N 27°56' W 082°26'0 0.0
2017-Sep-26 06:58N 27°56' W 082°26'0 0.0
2017-Sep-26 06:28N 27°56' W 082°26'0 0.0
2017-Sep-26 05:58N 27°56' W 082°26'0 0.0
2017-Sep-26 05:28N 27°56' W 082°26'0 0.0
2017-Sep-26 04:58N 27°56' W 082°26'0 0.0
2017-Sep-26 04:28N 27°56' W 082°26'0 0.0
2017-Sep-26 03:58N 27°56' W 082°26'0 0.0
2017-Sep-26 03:28N 27°56' W 082°26'0 0.0
2017-Sep-26 03:00N 27°56' W 082°26'0 0.0
2017-Sep-26 02:30N 27°56' W 082°26'0 0.0
2017-Sep-26 02:00N 27°56' W 082°26'0 0.0
2017-Sep-26 01:30N 27°56' W 082°26'0 0.0
2017-Sep-26 01:00N 27°56' W 082°26'0 0.0
2017-Sep-26 00:30N 27°56' W 082°26'0 0.0
2017-Sep-26 00:00N 27°56' W 082°26'0 0.0
2017-Sep-25 23:30N 27°56' W 082°26'0 0.0
2017-Sep-25 23:00N 27°56' W 082°26'0 0.1
2017-Sep-25 22:30N 27°56' W 082°26'1 1.8
2017-Sep-25 22:00N 27°55' W 082°27'1 1.9
2017-Sep-25 21:30N 27°56' W 082°26'0 0.0
2017-Sep-25 21:00N 27°56' W 082°26'0 0.0
2017-Sep-25 20:30N 27°56' W 082°26'0 0.0
2017-Sep-25 20:00N 27°56' W 082°26'2 3.3
2017-Sep-25 19:30N 27°55' W 082°26'1 1.5
2017-Sep-25 19:00N 27°56' W 082°26'0 0.0
2017-Sep-25 18:30N 27°56' W 082°26'1 1.0
2017-Sep-25 18:00N 27°55' W 082°26'3 6.8
2017-Sep-25 17:30N 27°52' W 082°27'6 9.5
2017-Sep-25 16:50N 27°47' W 082°31'  
2017-Sep-19 07:48N 27°45' W 082°32'2 7.4
2017-Sep-19 07:30N 27°47' W 082°31'4 7.2
2017-Sep-19 07:00N 27°48' W 082°28'3 5.9
2017-Sep-19 06:29N 27°51' W 082°26'2 4.0
2017-Sep-19 05:59N 27°51' W 082°23'0 0.2
2017-Sep-19 05:30N 27°51' W 082°23'0 0.0
2017-Sep-19 04:58N 27°51' W 082°23'0 0.0
2017-Sep-19 04:29N 27°51' W 082°23'0 0.0
2017-Sep-19 04:00N 27°51' W 082°23'0 0.0
2017-Sep-19 03:30N 27°51' W 082°23'0 0.0
2017-Sep-19 03:00N 27°51' W 082°24'0 0.0
2017-Sep-19 02:30N 27°51' W 082°23'0 0.0
2017-Sep-19 02:00N 27°52' W 082°23'0 0.0
2017-Sep-19 01:30N 27°51' W 082°23'0 0.0
2017-Sep-19 01:00N 27°51' W 082°23'0 0.0
2017-Sep-19 00:30N 27°51' W 082°23'0 0.0
2017-Sep-19 00:00N 27°51' W 082°23'0 0.0
2017-Sep-18 23:30N 27°51' W 082°24'0 0.0
2017-Sep-18 23:00N 27°52' W 082°23'0 0.0
2017-Sep-18 22:30N 27°51' W 082°23'0 0.0
2017-Sep-18 22:00N 27°51' W 082°23'0 0.0
2017-Sep-18 21:30N 27°51' W 082°23'0 0.0
2017-Sep-18 21:00N 27°51' W 082°24'0 0.0
2017-Sep-18 20:30N 27°51' W 082°23'0 0.0
2017-Sep-18 20:00N 27°51' W 082°24'0 0.0
2017-Sep-18 19:30N 27°51' W 082°24'0 0.0
2017-Sep-18 19:00N 27°51' W 082°24'0 0.0
2017-Sep-18 18:28N 27°51' W 082°24'0 0.0
2017-Sep-18 18:00N 27°51' W 082°24'0 0.0
2017-Sep-18 17:30N 27°51' W 082°24'0 0.0
2017-Sep-18 17:00N 27°51' W 082°24'0 0.0
2017-Sep-18 16:30N 27°51' W 082°24'0 0.0
2017-Sep-18 16:00N 27°51' W 082°24'0 0.0
2017-Sep-18 15:30N 27°51' W 082°24'0 0.0
2017-Sep-18 15:00N 27°51' W 082°24'0 0.0
2017-Sep-18 14:30N 27°51' W 082°24'0 0.0
2017-Sep-18 14:00N 27°52' W 082°24'0 0.0
2017-Sep-18 13:30N 27°51' W 082°24'0 0.0
2017-Sep-18 13:00N 27°52' W 082°24'0 0.0
2017-Sep-18 12:30N 27°51' W 082°24'0 0.0
2017-Sep-18 12:00N 27°52' W 082°24'0 0.0
2017-Sep-18 11:30N 27°51' W 082°24'0 0.0
2017-Sep-18 11:00N 27°51' W 082°24'0 0.0
2017-Sep-18 10:30N 27°51' W 082°24'0 0.0
2017-Sep-18 10:00N 27°51' W 082°24'0 0.0
2017-Sep-18 09:30N 27°51' W 082°24'0 0.0
2017-Sep-18 09:00N 27°51' W 082°24'0 0.0
2017-Sep-18 08:30N 27°52' W 082°24'0 0.0
2017-Sep-18 08:00N 27°52' W 082°24'0 0.0
2017-Sep-18 07:30N 27°51' W 082°24'0 0.0
2017-Sep-18 07:00N 27°51' W 082°24'0 0.0
2017-Sep-18 06:30N 27°51' W 082°24'0 0.0
2017-Sep-18 06:00N 27°51' W 082°24'0 0.0
2017-Sep-18 05:30N 27°51' W 082°24'0 0.0
2017-Sep-18 05:00N 27°51' W 082°24'0 0.0
2017-Sep-18 04:30N 27°51' W 082°24'0 0.0
2017-Sep-18 04:00N 27°51' W 082°24'0 0.0
2017-Sep-18 03:30N 27°51' W 082°24'0 0.0
2017-Sep-18 03:00N 27°51' W 082°24'0 0.0
2017-Sep-18 02:30N 27°51' W 082°24'0 0.0
2017-Sep-18 02:00N 27°51' W 082°24'0 0.0
2017-Sep-18 01:30N 27°51' W 082°24'0 0.0
2017-Sep-18 01:00N 27°51' W 082°24'0 0.0
2017-Sep-18 00:30N 27°51' W 082°24'0 0.0
2017-Sep-18 00:00N 27°51' W 082°24'0 0.0
2017-Sep-17 23:30N 27°52' W 082°24'0 0.0
2017-Sep-17 23:00N 27°52' W 082°24'0 0.0
2017-Sep-17 22:30N 27°51' W 082°24'0 0.0
2017-Sep-17 22:00N 27°51' W 082°24'0 0.0
2017-Sep-17 21:30N 27°51' W 082°24'0 0.0
2017-Sep-17 21:00N 27°51' W 082°24'0 0.0
2017-Sep-17 20:30N 27°51' W 082°24'0 0.0
2017-Sep-17 20:00N 27°51' W 082°24'0 0.0
2017-Sep-17 19:30N 27°51' W 082°24'0 0.0
2017-Sep-17 19:00N 27°51' W 082°24'0 0.0
2017-Sep-17 18:30N 27°51' W 082°24'0 0.0
2017-Sep-17 18:00N 27°51' W 082°24'0 0.0
2017-Sep-17 17:30N 27°51' W 082°24'0 0.0
2017-Sep-17 17:00N 27°51' W 082°24'0 0.0
2017-Sep-17 16:30N 27°51' W 082°24'0 0.0
2017-Sep-17 16:00N 27°51' W 082°24'0 0.0
2017-Sep-17 15:30N 27°51' W 082°24'0 0.0
2017-Sep-17 15:00N 27°51' W 082°24'0 0.0
2017-Sep-17 14:30N 27°51' W 082°24'0 0.0
2017-Sep-17 14:00N 27°51' W 082°24'0 0.0
2017-Sep-17 13:30N 27°52' W 082°24'0 0.0
2017-Sep-17 13:00N 27°51' W 082°24'0 0.0
2017-Sep-17 12:30N 27°51' W 082°24'0 0.0
2017-Sep-17 12:00N 27°51' W 082°24'0 0.0
2017-Sep-17 11:30N 27°51' W 082°24'0 0.0
2017-Sep-17 11:00N 27°51' W 082°24'0 0.0
2017-Sep-17 10:30N 27°51' W 082°24'0 0.0
2017-Sep-17 10:00N 27°51' W 082°24'0 0.0
2017-Sep-17 09:30N 27°51' W 082°24'0 0.0
2017-Sep-17 09:00N 27°51' W 082°24'0 0.0
2017-Sep-17 08:30N 27°51' W 082°24'0 0.0
2017-Sep-17 08:00N 27°51' W 082°24'0 0.0
2017-Sep-17 07:30N 27°52' W 082°24'0 0.0
2017-Sep-17 07:00N 27°51' W 082°24'0 0.0
2017-Sep-17 06:30N 27°51' W 082°24'0 0.0
2017-Sep-17 06:00N 27°51' W 082°24'0 0.0
2017-Sep-17 05:30N 27°51' W 082°24'0 0.0
2017-Sep-17 05:00N 27°51' W 082°24'0 0.0
2017-Sep-17 04:30N 27°52' W 082°24'0 0.0
2017-Sep-17 04:00N 27°51' W 082°24'0 0.0
2017-Sep-17 03:30N 27°51' W 082°24'0 0.0
2017-Sep-17 03:00N 27°52' W 082°24'0 0.0
2017-Sep-17 02:30N 27°51' W 082°24'0 0.0
2017-Sep-17 02:00N 27°52' W 082°24'0 0.0
2017-Sep-17 01:30N 27°52' W 082°24'0 0.0
2017-Sep-17 01:00N 27°52' W 082°24'0 0.0
2017-Sep-17 00:30N 27°52' W 082°24'0 0.0
2017-Sep-17 00:00N 27°51' W 082°24'0 0.0
2017-Sep-16 23:30N 27°51' W 082°24'0 0.0
2017-Sep-16 23:00N 27°51' W 082°24'0 0.0
2017-Sep-16 22:30N 27°51' W 082°24'0 0.0
2017-Sep-16 22:00N 27°51' W 082°23'0 0.0
2017-Sep-16 21:30N 27°51' W 082°24'0 0.0
2017-Sep-16 21:00N 27°51' W 082°24'0 0.0
2017-Sep-16 20:30N 27°51' W 082°24'0 0.0
2017-Sep-16 20:00N 27°51' W 082°24'0 0.0
2017-Sep-16 19:30N 27°51' W 082°24'0 0.0
2017-Sep-16 19:00N 27°51' W 082°24'0 0.0
2017-Sep-16 18:30N 27°51' W 082°24'  

Dump ship's entire track history